Time;durP1;ratioP1;P1;durP2;ratioP2;P2;SDS_P1;SDS_P2;PMS_P1;PMS_P2;Temp;Humidity;BMP_temperature;BMP_pressure;BME280_temperature;BME280_humidity;BME280_pressure;Samples;Min_cycle;Max_cycle;Signal;HPM_P1;HPM_P2
2022/06/28 00:01:15;;;;;;;10.88;9.77;;;13.20;99.90;;;;;;4789029;29;20058;-70
2022/06/28 00:03:42;;;;;;;12.18;10.55;;;13.10;99.90;;;;;;4790033;29;20067;-69
2022/06/28 00:06:08;;;;;;;12.15;10.95;;;13.10;99.90;;;;;;4791764;29;20488;-70
2022/06/28 00:08:33;;;;;;;10.50;9.50;;;13.10;99.90;;;;;;4791250;29;20575;-73
2022/06/28 00:10:59;;;;;;;11.73;10.63;;;13.10;99.90;;;;;;4789989;29;20123;-72
2022/06/28 00:13:25;;;;;;;11.05;9.95;;;13.00;99.90;;;;;;4786899;29;20125;-69
2022/06/28 00:16:06;;;;;;;11.77;10.68;;;13.00;99.90;;;;;;4791351;29;20165;-69
2022/06/28 00:18:39;;;;;;;13.52;10.68;;;13.00;99.90;;;;;;4780572;30;20052;-70
2022/06/28 00:21:06;;;;;;;12.05;10.65;;;13.00;99.90;;;;;;4773438;29;20486;-72
2022/06/28 00:23:33;;;;;;;11.93;10.73;;;13.00;99.90;;;;;;4788364;29;20073;-71
2022/06/28 00:25:59;;;;;;;12.25;11.15;;;12.90;99.90;;;;;;4807896;29;20074;-72
2022/06/28 00:28:25;;;;;;;12.15;10.90;;;12.90;99.90;;;;;;4782212;29;20413;-69
2022/06/28 00:30:50;;;;;;;10.50;9.50;;;12.90;99.90;;;;;;4773468;30;20195;-69
2022/06/28 00:33:16;;;;;;;11.88;10.70;;;12.90;99.90;;;;;;4799319;29;20454;-71
2022/06/28 00:35:42;;;;;;;12.52;11.43;;;12.90;99.90;;;;;;4791167;29;20061;-70
2022/06/28 00:38:08;;;;;;;12.50;10.43;;;12.90;99.90;;;;;;4805713;29;20092;-70
2022/06/28 00:40:49;;;;;;;11.32;10.20;;;12.80;99.90;;;;;;4802604;29;20051;-70
2022/06/28 00:43:16;;;;;;;10.57;9.52;;;12.80;99.90;;;;;;4788045;29;20047;-71
2022/06/28 00:45:43;;;;;;;10.88;9.88;;;12.80;99.90;;;;;;4790354;29;20057;-70
2022/06/28 00:48:12;;;;;;;11.13;10.00;;;12.80;99.90;;;;;;4790745;29;20114;-69
2022/06/28 00:50:38;;;;;;;14.73;12.00;;;12.80;99.90;;;;;;4790130;29;20062;-69
2022/06/28 00:53:11;;;;;;;15.35;12.13;;;12.70;99.90;;;;;;4789671;29;20057;-71
2022/06/28 00:55:37;;;;;;;13.40;12.05;;;12.70;99.90;;;;;;4805452;29;20082;-70
2022/06/28 00:58:04;;;;;;;11.32;10.32;;;12.70;99.90;;;;;;4789648;29;20430;-70
2022/06/28 01:00:34;;;;;;;14.05;12.00;;;12.70;99.90;;;;;;4790230;29;20055;-69
2022/06/28 01:03:00;;;;;;;14.35;11.60;;;12.60;99.90;;;;;;4778686;30;20061;-70
2022/06/28 01:05:26;;;;;;;13.52;12.18;;;12.60;99.90;;;;;;4773241;30;20093;-70
2022/06/28 01:07:52;;;;;;;14.05;11.63;;;12.60;99.90;;;;;;4772459;29;20079;-69
2022/06/28 01:10:17;;;;;;;13.43;12.02;;;12.60;99.90;;;;;;4784159;29;20393;-71
2022/06/28 01:12:43;;;;;;;13.30;12.10;;;12.60;99.90;;;;;;4782288;30;20044;-71
2022/06/28 01:15:09;;;;;;;12.98;11.35;;;12.60;99.90;;;;;;4794767;29;20050;-70
2022/06/28 01:17:35;;;;;;;13.57;12.30;;;12.60;99.90;;;;;;4790181;29;20054;-69
2022/06/28 01:20:00;;;;;;;12.48;11.27;;;12.50;99.90;;;;;;4788660;29;20060;-69
2022/06/28 01:22:29;;;;;;;14.43;12.90;;;12.50;99.90;;;;;;4790625;29;20111;-69
2022/06/28 01:24:56;;;;;;;13.50;12.20;;;12.50;99.90;;;;;;4790167;29;20051;-71
2022/06/28 01:27:22;;;;;;;13.77;12.43;;;12.50;99.90;;;;;;4801194;29;20071;-69
2022/06/28 01:29:48;;;;;;;13.95;12.55;;;12.50;99.90;;;;;;4805415;29;20054;-70
2022/06/28 01:32:14;;;;;;;13.32;11.93;;;12.50;99.90;;;;;;4789812;29;20066;-72
2022/06/28 01:34:40;;;;;;;17.05;12.35;;;12.40;99.90;;;;;;4801866;29;20405;-71
2022/06/28 01:37:07;;;;;;;14.43;12.82;;;12.40;99.90;;;;;;4787030;30;20050;-72
2022/06/28 01:39:33;;;;;;;12.75;11.45;;;12.50;99.90;;;;;;4802596;29;20382;-71
2022/06/28 01:41:59;;;;;;;13.10;11.80;;;12.40;99.90;;;;;;4786076;30;20051;-68
2022/06/28 01:44:25;;;;;;;12.70;11.45;;;12.40;99.90;;;;;;4802613;29;20052;-70
2022/06/28 01:46:51;;;;;;;12.85;11.63;;;12.40;99.90;;;;;;4801235;29;20059;-71
2022/06/28 01:49:17;;;;;;;21.52;12.23;;;12.30;99.90;;;;;;4802257;29;20055;-72
2022/06/28 01:51:43;;;;;;;13.93;11.45;;;12.40;99.90;;;;;;4787324;29;20429;-70
2022/06/28 01:54:08;;;;;;;13.23;11.88;;;12.30;99.90;;;;;;4786279;29;20047;-71
2022/06/28 01:56:35;;;;;;;12.73;11.43;;;12.30;99.90;;;;;;4786113;29;20051;-69
2022/06/28 01:59:02;;;;;;;14.20;12.70;;;12.30;99.90;;;;;;4785445;29;20544;-70
2022/06/28 02:01:27;;;;;;;14.18;11.93;;;12.30;99.90;;;;;;4784975;29;20134;-70
2022/06/28 02:03:53;;;;;;;12.07;10.88;;;12.30;99.90;;;;;;4770059;30;20139;-72
2022/06/28 02:06:19;;;;;;;12.90;11.55;;;12.20;99.90;;;;;;4768665;30;20052;-71
2022/06/28 02:08:45;;;;;;;15.32;12.80;;;12.30;99.90;;;;;;4785670;29;20051;-69
2022/06/28 02:11:10;;;;;;;14.55;12.38;;;12.30;99.90;;;;;;4785951;29;20063;-69
2022/06/28 02:13:36;;;;;;;13.50;12.10;;;12.20;99.90;;;;;;4778313;30;20395;-71
2022/06/28 02:16:05;;;;;;;13.50;12.07;;;12.20;99.90;;;;;;4770144;30;20051;-70
2022/06/28 02:18:31;;;;;;;13.15;11.75;;;12.20;99.90;;;;;;4768492;30;20148;-70
2022/06/28 02:20:57;;;;;;;14.32;12.00;;;12.20;99.90;;;;;;4768438;30;20097;-70
2022/06/28 02:23:23;;;;;;;14.95;12.20;;;12.10;99.90;;;;;;4779934;30;20122;-71
2022/06/28 02:25:49;;;;;;;13.40;11.82;;;12.20;99.90;;;;;;4786483;30;20620;-68
2022/06/28 02:28:14;;;;;;;13.80;12.27;;;12.20;99.90;;;;;;4773899;29;20051;-70
2022/06/28 02:30:40;;;;;;;15.43;12.57;;;12.10;99.90;;;;;;4770033;30;20120;-72
2022/06/28 02:33:06;;;;;;;13.80;12.38;;;12.10;99.90;;;;;;4786789;29;20047;-71
2022/06/28 02:40:59;;;;;;;13.43;12.13;;;12.10;99.90;;;;;;4789473;29;20058;-69
2022/06/28 02:43:25;;;;;;;13.23;11.88;;;12.00;99.90;;;;;;4784469;29;20485;-70
2022/06/28 02:45:51;;;;;;;12.20;11.10;;;12.00;99.90;;;;;;4788815;29;20063;-71
2022/06/28 02:48:16;;;;;;;12.75;11.32;;;12.00;99.90;;;;;;4788746;29;20050;-71
2022/06/28 02:50:42;;;;;;;14.13;11.88;;;12.00;99.90;;;;;;4789382;29;20091;-71
2022/06/28 02:53:07;;;;;;;12.48;11.18;;;11.90;99.90;;;;;;4788337;29;20050;-67
2022/06/28 02:55:33;;;;;;;12.68;11.25;;;11.90;99.90;;;;;;4804537;29;20184;-69
2022/06/28 02:57:59;;;;;;;15.88;12.10;;;11.90;99.90;;;;;;4787923;29;20058;-67
2022/06/28 03:00:24;;;;;;;13.70;12.18;;;11.90;99.90;;;;;;4789129;29;20055;-71
2022/06/28 03:02:50;;;;;;;12.60;11.10;;;11.90;99.90;;;;;;4802028;29;20066;-70
2022/06/28 03:05:19;;;;;;;13.40;11.60;;;11.90;99.90;;;;;;4789383;29;20098;-71
2022/06/28 03:07:47;;;;;;;12.48;11.18;;;11.90;99.90;;;;;;4788793;29;20051;-70
2022/06/28 03:10:14;;;;;;;14.55;11.50;;;11.90;99.90;;;;;;4789513;29;20051;-72
2022/06/28 03:12:39;;;;;;;14.70;11.63;;;11.90;99.90;;;;;;4785950;29;20547;-69
2022/06/28 03:15:06;;;;;;;16.00;11.82;;;11.90;99.90;;;;;;4791651;29;20129;-71
2022/06/28 03:17:32;;;;;;;14.05;12.13;;;11.90;99.90;;;;;;4806247;29;20412;-70
2022/06/28 03:19:57;;;;;;;15.40;11.80;;;11.90;99.90;;;;;;4792136;29;20050;-70
2022/06/28 03:22:23;;;;;;;14.80;11.32;;;11.90;99.90;;;;;;4806850;29;20054;-70
2022/06/28 03:24:48;;;;;;;14.02;11.60;;;11.90;99.90;;;;;;4792808;29;20082;-70
2022/06/28 03:27:14;;;;;;;14.02;11.40;;;11.90;99.90;;;;;;4784838;29;20054;-71
2022/06/28 03:29:41;;;;;;;12.88;11.50;;;11.90;99.90;;;;;;4785124;29;20078;-70
2022/06/28 03:32:07;;;;;;;14.57;11.38;;;11.90;99.90;;;;;;4776037;29;20084;-70
2022/06/28 03:34:32;;;;;;;12.88;11.52;;;11.90;99.90;;;;;;4776842;29;20054;-69
2022/06/28 03:36:58;;;;;;;12.68;11.35;;;11.90;99.90;;;;;;4792455;29;20068;-71
2022/06/28 03:39:24;;;;;;;12.20;10.05;;;11.90;99.90;;;;;;4789886;29;20066;-70
2022/06/28 03:41:49;;;;;;;12.85;11.20;;;11.90;99.90;;;;;;4788370;29;20061;-70
2022/06/28 03:44:15;;;;;;;13.98;12.02;;;11.90;99.90;;;;;;4776226;29;20369;-69
2022/06/28 03:46:41;;;;;;;12.00;10.80;;;11.90;99.90;;;;;;4773635;30;20397;-70
2022/06/28 03:49:07;;;;;;;13.10;10.27;;;11.90;99.90;;;;;;4774015;29;20043;-69
2022/06/28 03:51:32;;;;;;;10.88;9.77;;;11.90;99.90;;;;;;4774040;30;20077;-70
2022/06/28 03:53:58;;;;;;;10.23;9.23;;;11.90;99.90;;;;;;4786375;29;20043;-69
2022/06/28 03:56:23;;;;;;;15.13;10.32;;;11.90;99.90;;;;;;4805203;29;20368;-69
2022/06/28 03:58:49;;;;;;;12.25;10.35;;;11.90;99.90;;;;;;4807223;29;20050;-72
2022/06/28 04:01:14;;;;;;;11.68;10.05;;;11.90;99.90;;;;;;4790839;29;20055;-70
2022/06/28 04:03:40;;;;;;;12.23;10.88;;;11.90;99.90;;;;;;4790836;29;20053;-69
2022/06/28 04:06:06;;;;;;;12.57;10.95;;;11.90;99.90;;;;;;4792041;29;20051;-69
2022/06/28 04:08:31;;;;;;;12.30;10.32;;;11.90;99.90;;;;;;4790483;29;20069;-70
2022/06/28 04:11:15;;;;;;;11.32;9.88;;;12.00;99.90;;;;;;4789020;29;20058;-71
2022/06/28 04:13:49;;;;;;;11.05;9.85;;;12.00;99.90;;;;;;4789634;29;20612;-68
2022/06/28 04:16:16;;;;;;;14.63;10.23;;;12.00;99.90;;;;;;4759038;30;20134;-71
2022/06/28 04:18:43;;;;;;;14.52;10.75;;;12.00;99.90;;;;;;4773096;30;20481;-71
2022/06/28 04:21:10;;;;;;;11.70;10.38;;;12.10;99.90;;;;;;4776441;29;20038;-70
2022/06/28 04:23:36;;;;;;;12.23;10.95;;;12.10;99.90;;;;;;4789908;29;20062;-69
2022/06/28 04:26:03;;;;;;;14.10;11.18;;;12.20;99.90;;;;;;4790983;29;20090;-71
2022/06/28 04:28:29;;;;;;;10.95;9.77;;;12.10;99.90;;;;;;4800650;29;20218;-70
2022/06/28 04:30:55;;;;;;;13.80;10.65;;;12.20;99.90;;;;;;4776950;29;20051;-68
2022/06/28 04:33:21;;;;;;;12.25;10.90;;;12.20;99.90;;;;;;4784996;29;20052;-71
2022/06/28 04:35:47;;;;;;;13.40;11.48;;;12.30;99.90;;;;;;4790119;29;20051;-71
2022/06/28 04:38:12;;;;;;;13.68;10.75;;;12.30;99.90;;;;;;4790912;29;20051;-71
2022/06/28 04:40:38;;;;;;;12.48;11.20;;;12.40;99.90;;;;;;4789752;29;20501;-70
2022/06/28 04:43:03;;;;;;;12.20;11.00;;;12.40;99.90;;;;;;4806339;29;20054;-68
2022/06/28 04:45:30;;;;;;;13.48;10.63;;;12.40;99.90;;;;;;4772726;29;20083;-68
2022/06/28 04:47:55;;;;;;;13.50;11.90;;;12.50;99.90;;;;;;4772201;29;20063;-69
2022/06/28 04:50:21;;;;;;;13.73;11.70;;;12.50;99.90;;;;;;4784679;29;20131;-71
2022/06/28 04:52:47;;;;;;;15.68;11.93;;;12.50;99.90;;;;;;4787695;29;20047;-70
2022/06/28 04:55:12;;;;;;;13.18;10.60;;;12.60;99.90;;;;;;4789565;29;20059;-70
2022/06/28 04:57:38;;;;;;;12.70;11.50;;;13.00;99.90;;;;;;4790894;29;20127;-72
2022/06/28 05:00:04;;;;;;;12.77;11.48;;;12.60;99.90;;;;;;4789048;29;20099;-69
2022/06/28 05:02:30;;;;;;;12.63;10.88;;;12.70;99.90;;;;;;4784890;29;20495;-71
2022/06/28 05:04:56;;;;;;;16.33;11.27;;;12.70;99.90;;;;;;4798861;29;20038;-69
2022/06/28 05:07:21;;;;;;;14.63;11.88;;;12.80;99.90;;;;;;4778247;29;20123;-72
2022/06/28 05:09:49;;;;;;;12.55;11.25;;;12.80;99.90;;;;;;4772785;30;20062;-71
2022/06/28 05:12:15;;;;;;;13.73;11.65;;;12.90;99.90;;;;;;4801560;29;20108;-69
2022/06/28 05:14:40;;;;;;;13.77;12.43;;;13.00;99.90;;;;;;4783412;29;20135;-71
2022/06/28 05:17:06;;;;;;;13.88;11.27;;;13.00;99.90;;;;;;4784207;29;20181;-71
2022/06/28 05:19:33;;;;;;;15.13;13.13;;;13.10;99.90;;;;;;4804091;29;20057;-71
2022/06/28 05:21:59;;;;;;;15.55;12.50;;;13.20;99.90;;;;;;4781327;29;20055;-70
2022/06/28 05:24:26;;;;;;;16.33;11.52;;;13.30;99.90;;;;;;4772585;30;20058;-71
2022/06/28 05:26:51;;;;;;;15.73;13.40;;;13.40;99.90;;;;;;4771961;29;20138;-71
2022/06/28 05:29:17;;;;;;;15.52;12.55;;;13.50;99.90;;;;;;4773537;29;20055;-72
2022/06/28 05:31:43;;;;;;;14.35;11.10;;;13.70;99.90;;;;;;4800973;29;20399;-73
2022/06/28 05:34:09;;;;;;;13.60;12.07;;;14.40;99.90;;;;;;4784652;29;20116;-73
2022/06/28 05:36:37;;;;;;;13.63;12.07;;;15.60;99.90;;;;;;4804857;29;20112;-73
2022/06/28 05:39:04;;;;;;;12.73;11.00;;;;;;;;;;4788193;29;20057;-70
2022/06/28 05:41:31;;;;;;;13.57;11.23;;;17.90;99.90;;;;;;4788909;29;20051;-70
2022/06/28 05:43:57;;;;;;;12.32;9.85;;;;;;;;;;4801864;29;20043;-70
2022/06/28 05:46:24;;;;;;;11.95;9.68;;;19.80;99.90;;;;;;4780272;29;20059;-72
2022/06/28 05:48:51;;;;;;;11.63;9.65;;;20.20;99.90;;;;;;4788405;29;20042;-70
2022/06/28 05:51:17;;;;;;;11.02;9.00;;;20.80;99.90;;;;;;4788478;29;20480;-70
2022/06/28 05:53:42;;;;;;;11.02;9.82;;;21.20;99.90;;;;;;4785131;29;20047;-71
2022/06/28 05:56:08;;;;;;;12.85;8.15;;;21.60;99.90;;;;;;4804945;29;20051;-70
2022/06/28 05:58:34;;;;;;;9.70;8.57;;;22.00;99.90;;;;;;4787582;29;20042;-67
2022/06/28 06:01:00;;;;;;;10.07;9.05;;;22.30;99.90;;;;;;4784215;29;20050;-66
2022/06/28 06:03:25;;;;;;;10.02;7.80;;;22.40;99.90;;;;;;4785309;29;20058;-69
2022/06/28 06:05:51;;;;;;;9.05;7.18;;;22.60;99.90;;;;;;4783074;29;20174;-69
2022/06/28 06:08:17;;;;;;;9.90;7.50;;;22.80;99.90;;;;;;4803233;29;20468;-69
2022/06/28 06:10:42;;;;;;;11.75;7.68;;;22.90;99.90;;;;;;4789494;29;20090;-70
2022/06/28 06:13:08;;;;;;;7.65;6.70;;;23.00;99.90;;;;;;4789449;29;20047;-69
2022/06/28 06:15:34;;;;;;;9.20;7.22;;;23.10;99.90;;;;;;4789235;29;20549;-71
2022/06/28 06:17:59;;;;;;;7.30;6.43;;;23.20;99.90;;;;;;4784182;29;20051;-70
2022/06/28 06:20:25;;;;;;;8.35;6.40;;;23.30;99.90;;;;;;4794092;29;20119;-69
2022/06/28 06:22:51;;;;;;;10.18;6.25;;;23.40;99.90;;;;;;4804249;29;20407;-71
2022/06/28 06:25:17;;;;;;;7.32;6.07;;;23.40;99.90;;;;;;4788953;29;20155;-71
2022/06/28 06:27:43;;;;;;;6.88;5.85;;;23.50;99.90;;;;;;4803086;29;20472;-70
2022/06/28 06:30:10;;;;;;;7.60;6.13;;;23.40;99.90;;;;;;4771378;30;20059;-69
2022/06/28 06:32:35;;;;;;;9.10;6.35;;;23.50;99.90;;;;;;4775964;29;20441;-69
2022/06/28 06:35:01;;;;;;;9.27;6.10;;;23.50;99.90;;;;;;4786378;29;20062;-70
2022/06/28 06:37:27;;;;;;;8.93;6.10;;;23.50;99.90;;;;;;4780666;29;20539;-71
2022/06/28 06:39:53;;;;;;;7.82;6.07;;;23.50;99.90;;;;;;4778912;29;20499;-69
2022/06/28 06:42:19;;;;;;;10.40;5.55;;;23.50;99.90;;;;;;4780760;29;20051;-69
2022/06/28 06:44:44;;;;;;;11.98;5.80;;;23.10;99.90;;;;;;4774790;29;20060;-68
2022/06/28 06:47:10;;;;;;;6.30;5.07;;;22.20;99.90;;;;;;4781776;29;20063;-71
2022/06/28 06:49:36;;;;;;;9.93;5.35;;;21.20;99.90;;;;;;4806986;29;20074;-71
2022/06/28 06:52:02;;;;;;;8.15;4.55;;;20.50;99.90;;;;;;4777458;29;20054;-71
2022/06/28 06:54:28;;;;;;;8.80;4.90;;;20.00;99.90;;;;;;4776492;29;20276;-67
2022/06/28 06:56:53;;;;;;;7.03;4.82;;;19.60;99.90;;;;;;4792080;29;20501;-67
2022/06/28 06:59:19;;;;;;;11.00;4.88;;;19.30;99.90;;;;;;4808435;29;20404;-70
2022/06/28 07:01:45;;;;;;;8.95;4.55;;;19.10;99.90;;;;;;4785267;29;20126;-67
2022/06/28 07:04:10;;;;;;;7.13;4.50;;;19.00;99.90;;;;;;4783012;29;20051;-68
2022/06/28 07:06:36;;;;;;;7.68;4.70;;;18.80;99.90;;;;;;4801840;29;20071;-67
2022/06/28 07:09:03;;;;;;;8.75;4.65;;;18.70;99.90;;;;;;4791310;29;20062;-68
2022/06/28 07:11:29;;;;;;;8.25;5.00;;;18.60;99.90;;;;;;4795417;29;20055;-71
2022/06/28 07:13:55;;;;;;;8.23;4.90;;;18.70;99.90;;;;;;4782709;29;20066;-69
2022/06/28 07:16:20;;;;;;;10.18;4.80;;;18.60;99.90;;;;;;4795116;29;20646;-69
2022/06/28 07:18:46;;;;;;;7.53;4.88;;;18.70;99.90;;;;;;4781210;29;20061;-68
2022/06/28 07:21:12;;;;;;;6.95;4.32;;;18.70;99.90;;;;;;4792540;29;20082;-68
2022/06/28 07:23:37;;;;;;;9.43;5.10;;;18.80;99.90;;;;;;4807164;29;20121;-66
2022/06/28 07:26:04;;;;;;;11.45;5.50;;;19.00;99.90;;;;;;4808933;29;20115;-68
2022/06/28 07:28:29;;;;;;;10.02;4.78;;;19.00;99.90;;;;;;4808377;29;20054;-69
2022/06/28 07:30:55;;;;;;;8.25;4.53;;;19.20;99.90;;;;;;4792147;29;20047;-68
2022/06/28 07:33:21;;;;;;;8.85;4.45;;;19.20;99.90;;;;;;4788026;29;20096;-68
2022/06/28 07:35:46;;;;;;;8.32;5.10;;;19.20;99.90;;;;;;4783414;29;20046;-67
2022/06/28 07:38:13;;;;;;;9.02;4.78;;;19.30;99.90;;;;;;4798979;29;20050;-71
2022/06/28 07:40:39;;;;;;;6.80;5.03;;;19.40;99.90;;;;;;4808569;29;20046;-68
2022/06/28 07:43:05;;;;;;;7.78;5.13;;;19.40;99.90;;;;;;4807769;29;20492;-69
2022/06/28 07:45:31;;;;;;;11.18;5.80;;;19.30;99.90;;;;;;4808101;29;20077;-69
2022/06/28 07:47:56;;;;;;;8.43;5.10;;;19.10;99.90;;;;;;4800371;29;20097;-67
2022/06/28 07:53:07;;;;;;;7.82;5.25;;;19.20;99.90;;;;;;4785728;29;20047;-69
2022/06/28 07:55:33;;;;;;;12.30;5.30;;;19.40;99.90;;;;;;4791653;29;20111;-69
2022/06/28 07:58:00;;;;;;;10.63;5.10;;;19.60;99.90;;;;;;4807706;29;20051;-69
2022/06/28 08:00:26;;;;;;;10.38;5.20;;;20.00;99.90;;;;;;4807477;29;20202;-68
2022/06/28 08:02:52;;;;;;;6.20;4.07;;;20.30;99.90;;;;;;4799720;29;20545;-69
2022/06/28 08:05:18;;;;;;;8.73;4.80;;;20.30;99.90;;;;;;4796693;29;20149;-69
2022/06/28 08:07:44;;;;;;;10.63;4.65;;;20.30;99.90;;;;;;4791527;29;20046;-69
2022/06/28 08:10:11;;;;;;;8.20;4.53;;;20.20;99.90;;;;;;4788719;29;20059;-69
2022/06/28 08:12:37;;;;;;;7.47;3.78;;;20.30;99.90;;;;;;4789377;29;20059;-69
2022/06/28 08:15:04;;;;;;;8.30;4.00;;;20.60;99.90;;;;;;4782486;29;20499;-69
2022/06/28 08:17:30;;;;;;;7.50;3.50;;;20.80;99.90;;;;;;4781651;29;20115;-70
2022/06/28 08:19:56;;;;;;;6.55;3.30;;;20.90;99.90;;;;;;4795967;29;20122;-68
2022/06/28 08:22:21;;;;;;;4.35;3.30;;;21.00;99.90;;;;;;4794383;29;20150;-71
2022/06/28 08:24:47;;;;;;;5.15;2.83;;;20.80;99.90;;;;;;4824620;29;20050;-69
2022/06/28 08:27:13;;;;;;;9.45;2.75;;;20.60;99.90;;;;;;4810764;29;20126;-69
2022/06/28 08:29:42;;;;;;;6.10;2.90;;;20.60;99.90;;;;;;4773061;30;20066;-69
2022/06/28 08:32:09;;;;;;;9.15;3.10;;;20.50;99.90;;;;;;4776070;29;20434;-69
2022/06/28 08:34:35;;;;;;;7.32;3.10;;;20.60;99.90;;;;;;4805183;29;20066;-70
2022/06/28 08:37:01;;;;;;;5.15;2.53;;;20.70;99.90;;;;;;4789968;29;20509;-68
2022/06/28 08:39:27;;;;;;;7.68;2.70;;;20.80;99.90;;;;;;4790497;29;20101;-70
2022/06/28 08:41:53;;;;;;;7.57;2.55;;;20.80;99.90;;;;;;4797467;29;20131;-68
2022/06/28 08:44:19;;;;;;;8.55;2.65;;;20.70;99.90;;;;;;4803707;29;20210;-68
2022/06/28 08:46:52;;;;;;;5.85;2.35;;;20.50;99.90;;;;;;4773950;30;20047;-69
2022/06/28 08:49:33;;;;;;;5.25;2.20;;;20.60;99.90;;;;;;4772789;30;20063;-67
2022/06/28 08:51:59;;;;;;;5.93;2.58;;;20.40;99.90;;;;;;4773144;30;20070;-69
2022/06/28 08:54:26;;;;;;;4.50;1.92;;;20.10;99.90;;;;;;4788033;29;20051;-67
2022/06/28 08:56:52;;;;;;;5.53;2.38;;;20.10;99.90;;;;;;4781228;29;20082;-68
2022/06/28 08:59:18;;;;;;;7.93;2.92;;;20.30;99.90;;;;;;4782631;29;20437;-70
2022/06/28 09:01:44;;;;;;;6.63;2.40;;;20.50;99.90;;;;;;4788603;30;20055;-69
2022/06/28 09:04:10;;;;;;;5.65;2.00;;;20.70;99.90;;;;;;4758538;29;20120;-68
2022/06/28 09:06:37;;;;;;;4.53;1.80;;;20.90;99.90;;;;;;4786456;29;20074;-70
2022/06/28 09:09:03;;;;;;;5.30;2.03;;;21.10;99.90;;;;;;4790758;29;20059;-69
2022/06/28 09:11:43;;;;;;;6.05;2.20;;;21.10;99.90;;;;;;4802195;29;20039;-68
2022/06/28 09:14:21;;;;;;;5.68;1.83;;;21.20;99.90;;;;;;4806742;29;20107;-71
2022/06/28 09:16:47;;;;;;;7.07;2.13;;;21.40;99.90;;;;;;4806666;29;20541;-69
2022/06/28 09:19:12;;;;;;;4.95;1.80;;;21.40;99.90;;;;;;4789699;29;20062;-68
2022/06/28 09:21:43;;;;;;;5.60;1.90;;;21.40;99.90;;;;;;4790086;29;20077;-68
2022/06/28 09:24:09;;;;;;;4.47;1.45;;;21.60;99.90;;;;;;4795645;29;20465;-69
2022/06/28 09:26:34;;;;;;;4.40;1.40;;;21.70;99.90;;;;;;4776385;29;20062;-68
2022/06/28 09:29:00;;;;;;;2.67;1.10;;;21.60;99.90;;;;;;4780069;29;20050;-69
2022/06/28 09:31:28;;;;;;;2.78;1.33;;;21.70;99.90;;;;;;4779456;29;20054;-69
2022/06/28 09:33:59;;;;;;;5.47;1.55;;;21.90;99.90;;;;;;4778556;30;20087;-67
2022/06/28 09:36:25;;;;;;;2.45;1.27;;;22.00;99.90;;;;;;4785470;29;20055;-70
2022/06/28 09:38:53;;;;;;;5.07;1.80;;;22.20;99.90;;;;;;4800171;29;20062;-68
2022/06/28 09:41:24;;;;;;;6.57;1.70;;;22.30;99.90;;;;;;4781753;30;20076;-70
2022/06/28 09:43:55;;;;;;;3.88;1.17;;;22.10;99.90;;;;;;4778006;29;20127;-70
2022/06/28 09:46:23;;;;;;;7.20;1.50;;;21.80;99.90;;;;;;4787918;29;20712;-69
2022/06/28 09:48:49;;;;;;;7.00;1.50;;;21.60;99.90;;;;;;4770117;30;20058;-68
2022/06/28 09:51:22;;;;;;;5.45;1.63;;;21.40;99.90;;;;;;4770235;30;20066;-68
2022/06/28 09:53:52;;;;;;;6.32;1.50;;;21.30;99.90;;;;;;4770122;30;20050;-67
2022/06/28 09:56:21;;;;;;;5.15;1.65;;;21.30;99.90;;;;;;4783802;30;20055;-69
2022/06/28 09:58:48;;;;;;;4.18;1.20;;;21.50;99.90;;;;;;4770835;30;20143;-71
2022/06/28 10:01:14;;;;;;;4.07;1.10;;;21.80;99.90;;;;;;4790020;29;20059;-69
2022/06/28 10:03:40;;;;;;;4.55;1.15;;;22.00;99.90;;;;;;4791080;29;20070;-69
2022/06/28 10:06:05;;;;;;;5.47;1.38;;;22.10;99.90;;;;;;4785370;29;20058;-69
2022/06/28 10:08:32;;;;;;;3.08;1.20;;;22.20;99.90;;;;;;4783116;30;20567;-69
2022/06/28 10:10:59;;;;;;;1.73;0.90;;;22.40;99.90;;;;;;4768602;30;20063;-70
2022/06/28 10:16:21;;;;;;;4.32;1.30;;;22.70;99.90;;;;;;4806473;29;20051;-69
2022/06/28 10:18:48;;;;;;;3.80;1.20;;;22.90;99.90;;;;;;4778613;29;20123;-70
2022/06/28 10:21:13;;;;;;;5.05;1.50;;;23.10;99.90;;;;;;4776072;30;20101;-68
2022/06/28 10:23:43;;;;;;;4.18;1.02;;;23.20;99.90;;;;;;4783536;29;20043;-72
2022/06/28 10:26:18;;;;;;;5.32;1.45;;;23.00;99.90;;;;;;4778185;29;20100;-69
2022/06/28 10:29:00;;;;;;;2.85;1.00;;;23.00;95.70;;;;;;4791738;30;20071;-71
2022/06/28 10:31:25;;;;;;;3.05;1.30;;;22.90;96.90;;;;;;4792814;29;20469;-69
2022/06/28 10:34:03;;;;;;;3.25;1.08;;;23.00;96.20;;;;;;4797425;29;20112;-69
2022/06/28 10:36:40;;;;;;;4.32;1.05;;;22.70;84.80;;;;;;4811887;29;20066;-68
2022/06/28 10:39:08;;;;;;;2.50;0.90;;;22.50;93.80;;;;;;4811432;29;20150;-68
2022/06/28 10:42:00;;;;;;;4.43;1.00;;;22.50;99.90;;;;;;4808407;29;20536;-69
2022/06/28 10:44:47;;;;;;;4.70;1.10;;;22.60;97.70;;;;;;4811038;29;20065;-70
2022/06/28 10:47:16;;;;;;;6.38;1.20;;;22.50;96.20;;;;;;4805685;29;20500;-71
2022/06/28 10:49:52;;;;;;;2.95;0.80;;;22.60;97.90;;;;;;4803145;29;20047;-70
2022/06/28 10:52:23;;;;;;;3.38;0.90;;;22.50;97.60;;;;;;4801349;29;20125;-72
2022/06/28 10:54:51;;;;;;;2.85;1.02;;;22.40;93.70;;;;;;4800869;29;20054;-71
2022/06/28 10:57:45;;;;;;;4.68;0.98;;;22.30;90.70;;;;;;4792050;29;20066;-70
2022/06/28 11:00:23;;;;;;;4.07;1.20;;;22.20;89.80;;;;;;4779151;29;20055;-70
2022/06/28 11:02:52;;;;;;;4.05;1.00;;;22.40;96.10;;;;;;4811233;29;20062;-70
2022/06/28 11:05:23;;;;;;;5.07;1.10;;;22.60;97.90;;;;;;4809625;29;20055;-70
2022/06/28 11:08:03;;;;;;;4.72;1.02;;;22.70;95.80;;;;;;4799130;29;20447;-70
2022/06/28 11:10:29;;;;;;;3.60;1.00;;;22.60;83.40;;;;;;4811871;29;20380;-71
2022/06/28 11:13:18;;;;;;;2.92;1.20;;;22.60;98.80;;;;;;4810660;29;20499;-70
2022/06/28 11:15:44;;;;;;;2.92;0.80;;;22.70;75.00;;;;;;4811574;29;20054;-71
2022/06/28 11:18:19;;;;;;;2.90;0.93;;;22.50;90.80;;;;;;4791766;29;20066;-72
2022/06/28 11:20:45;;;;;;;3.05;1.10;;;22.60;78.70;;;;;;4800670;29;20043;-70
2022/06/28 11:23:25;;;;;;;5.88;1.23;;;22.80;97.70;;;;;;4784873;29;20063;-71
2022/06/28 11:28:56;;;;;;;3.55;1.20;;;22.70;96.30;;;;;;4811236;29;20426;-68
2022/06/28 11:31:22;;;;;;;4.43;1.30;;;22.60;94.10;;;;;;4811126;29;20051;-70
2022/06/28 11:33:48;;;;;;;3.38;1.38;;;22.80;97.00;;;;;;4793341;29;20393;-69
2022/06/28 11:36:30;;;;;;;4.75;1.25;;;22.90;98.80;;;;;;4791668;29;20058;-70
2022/06/28 11:39:15;;;;;;;7.07;1.38;;;23.00;96.70;;;;;;4791007;29;20164;-69
2022/06/28 11:41:47;;;;;;;2.80;1.17;;;23.30;94.20;;;;;;4804708;29;20065;-69
2022/06/28 11:44:13;;;;;;;4.70;1.15;;;23.30;85.90;;;;;;4791915;29;20354;-71
2022/06/28 11:46:39;;;;;;;4.72;1.40;;;23.40;93.50;;;;;;4779257;30;20051;-68
2022/06/28 11:49:05;;;;;;;4.82;1.67;;;23.40;92.90;;;;;;4799590;29;20107;-69
2022/06/28 11:51:31;;;;;;;6.45;1.13;;;23.50;93.30;;;;;;4808632;29;20058;-69
2022/06/28 11:53:58;;;;;;;4.65;1.00;;;23.50;85.90;;;;;;4807914;29;20134;-70
2022/06/28 11:56:24;;;;;;;4.85;1.42;;;23.50;93.90;;;;;;4808575;29;20058;-68
2022/06/28 11:58:50;;;;;;;2.40;1.10;;;23.50;92.90;;;;;;4807893;29;20058;-66
2022/06/28 12:01:18;;;;;;;3.22;1.33;;;23.30;91.30;;;;;;4796077;29;20472;-69
2022/06/28 12:03:44;;;;;;;3.63;1.08;;;23.30;86.20;;;;;;4799174;29;20046;-68
2022/06/28 12:06:11;;;;;;;3.38;0.98;;;23.10;91.10;;;;;;4806531;29;20171;-67
2022/06/28 12:08:50;;;;;;;4.90;1.48;;;23.00;92.20;;;;;;4785466;29;20057;-67
2022/06/28 12:11:44;;;;;;;4.05;1.48;;;23.10;92.10;;;;;;4798076;29;20059;-68
2022/06/28 12:14:32;;;;;;;5.75;1.40;;;23.30;93.80;;;;;;4798478;29;20049;-67
2022/06/28 12:17:00;;;;;;;3.63;1.35;;;23.50;89.10;;;;;;4780843;29;20178;-68
2022/06/28 12:19:32;;;;;;;5.10;1.42;;;23.60;79.90;;;;;;4799102;29;20073;-70
2022/06/28 12:22:02;;;;;;;3.83;1.25;;;23.80;75.00;;;;;;4809608;29;20065;-69
2022/06/28 12:24:47;;;;;;;4.65;1.30;;;23.90;83.90;;;;;;4797514;29;20062;-69
2022/06/28 12:27:15;;;;;;;2.40;0.85;;;24.10;80.50;;;;;;4803343;29;20092;-69
2022/06/28 12:29:41;;;;;;;2.92;0.95;;;24.00;76.80;;;;;;4783799;29;20126;-70
2022/06/28 12:32:07;;;;;;;7.50;1.55;;;24.00;75.20;;;;;;4796971;29;20096;-70
2022/06/28 12:35:01;;;;;;;8.38;1.17;;;24.00;70.90;;;;;;4798118;29;20054;-70
2022/06/28 12:37:27;;;;;;;4.93;1.02;;;23.80;63.20;;;;;;4805964;29;20422;-68
2022/06/28 12:39:53;;;;;;;3.17;1.10;;;23.60;69.20;;;;;;4807667;29;20073;-70
2022/06/28 12:42:21;;;;;;;5.72;1.20;;;23.50;69.60;;;;;;4790592;29;20134;-70
2022/06/28 12:44:46;;;;;;;4.03;0.95;;;23.40;70.80;;;;;;4805729;29;20043;-70
2022/06/28 12:47:12;;;;;;;3.03;1.00;;;23.60;73.30;;;;;;4796333;29;20381;-70
2022/06/28 12:49:40;;;;;;;3.97;1.33;;;23.80;70.70;;;;;;4773929;29;20118;-70
2022/06/28 12:52:08;;;;;;;3.45;1.17;;;23.90;68.20;;;;;;4787182;29;20047;-70
2022/06/28 12:54:34;;;;;;;3.03;0.90;;;24.00;73.70;;;;;;4789028;29;20039;-70